This is the latest recevied weather packets stored in our database for station/object HK4K-15. If no packets are shown the sender has not sent any weather packets the latest 10 day(s).
| Time | Temp. | Humidity | Pressure | Rain* | Wind** | Luminosity | Snow |
|---|---|---|---|---|---|---|---|
| 1788062353 | 21.11° C | 78% | 1016 hPa | 0 mm | - | - | - |
| 1788061332 | 21.11° C | 78% | 1016 hPa | 0 mm | - | - | - |
| 1788059291 | 22.22° C | 78% | 1017 hPa | 0 mm | - | - | - |
| 1788035819 | 26.67° C | 49% | 1008 hPa | 0 mm | - | - | - |
| 1788034798 | 26.67° C | 49% | 1008 hPa | 0 mm | - | - | - |
| 1788033778 | 26.11° C | 51% | 1008 hPa | 0 mm | - | - | - |
| 1788032758 | 26.11° C | 52% | 1008 hPa | 0 mm | - | - | - |
| 1788031737 | 26.11° C | 52% | 1008 hPa | 0 mm | - | - | - |
| 1788029696 | 26.11° C | 53% | 1008 hPa | 0 mm | - | - | - |
| 1788028675 | 26.67° C | 53% | 1008 hPa | 0 mm | - | - | - |
| 1788027655 | 26.67° C | 53% | 1009 hPa | 0 mm | - | - | - |
| 1788026634 | 26.67° C | 52% | 1009 hPa | 0 mm | - | - | - |
| 1788025614 | 26.67° C | 51% | 1009 hPa | 0 mm | - | - | - |
| 1788024593 | 26.67° C | 50% | 1010 hPa | 0 mm | - | - | - |
| 1788023573 | 27.22° C | 47% | 1010 hPa | 0 mm | - | - | - |
| 1788022553 | 25° C | 54% | 1010 hPa | 0 mm | - | - | - |
| 1788021532 | 25° C | 57% | 1011 hPa | 0 mm | - | - | - |
| 1788020512 | 25.56° C | 58% | 1012 hPa | 0 mm | - | - | - |
| 1788019491 | 23.33° C | 60% | 1012 hPa | 0 mm | - | - | - |
| 1788017450 | 22.78° C | 60% | 1012 hPa | 0 mm | - | - | - |
| 1788016430 | 23.33° C | 60% | 1013 hPa | 0 mm | - | - | - |
| 1788014389 | 21.67° C | 67% | 1014 hPa | 0 mm | - | - | - |
| 1788012348 | 22.22° C | 66% | 1014 hPa | 0 mm | - | - | - |
| 1788010307 | 20° C | 77% | 1014 hPa | 0 mm | - | - | - |
| 1788009286 | 20° C | 76% | 1015 hPa | 0 mm | - | - | - |
* Rain latest hour (hover to see other rain measurements)
** Current wind speed in m/s (hover to see current wind gust speed)